Time;durP1;ratioP1;P1;durP2;ratioP2;P2;SDS_P1;SDS_P2;PMS_P1;PMS_P2;Temp;Humidity;BMP_temperature;BMP_pressure;BME280_temperature;BME280_humidity;BME280_pressure;Samples;Min_cycle;Max_cycle;Signal;HPM_P1;HPM_P2
2022/11/02 00:01:41;;;;;;;3.13;1.33;;;;;;;16.51;48.18;95121.53;2618990;47;20160;-80
2022/11/02 00:04:10;;;;;;;3.40;1.90;;;;;;;16.80;47.88;95114.91;2619338;54;20148;-79
2022/11/02 00:06:40;;;;;;;2.57;2.47;;;;;;;15.79;45.62;95093.06;2619292;47;20145;-79
2022/11/02 00:09:11;;;;;;;7.40;1.20;;;;;;;14.51;48.29;95073.84;2618552;47;20179;-80
2022/11/02 00:11:40;;;;;;;1.97;1.87;;;;;;;14.27;49.15;95089.59;2618667;54;20156;-79
2022/11/02 00:14:10;;;;;;;1.90;1.80;;;;;;;14.00;50.85;95111.72;2618054;47;20145;-79
2022/11/02 00:16:41;;;;;;;1.30;1.20;;;;;;;13.67;51.69;95118.63;2618075;54;20233;-81
2022/11/02 00:19:11;;;;;;;1.47;1.37;;;;;;;13.27;52.96;95098.28;2618225;54;20204;-81
2022/11/02 00:21:40;;;;;;;1.70;1.43;;;;;;;12.76;53.34;95085.38;2619221;54;20214;-80
2022/11/02 00:24:14;;;;;;;0.90;0.90;;;;;;;13.04;52.88;95068.44;2618462;47;20252;-80
2022/11/02 00:26:42;;;;;;;1.37;1.20;;;;;;;13.08;53.82;95116.19;2618574;39;20593;-80
2022/11/02 00:29:11;;;;;;;3.27;1.40;;;;;;;13.64;53.71;95113.56;2618491;47;20145;-80
2022/11/02 00:31:40;;;;;;;1.40;1.30;;;;;;;14.48;55.82;95114.41;2618489;47;20192;-80
2022/11/02 00:34:09;;;;;;;3.83;3.13;;;;;;;14.90;50.17;95106.13;2618128;54;20153;-80
2022/11/02 00:36:37;;;;;;;1.97;1.87;;;;;;;14.37;49.00;95089.84;2617516;54;20204;-80
2022/11/02 00:39:06;;;;;;;2.77;1.50;;;;;;;13.67;51.27;95092.28;2617915;47;20191;-80
2022/11/02 00:41:37;;;;;;;10.87;1.50;;;;;;;13.52;52.31;95111.13;2617254;54;20149;-80
2022/11/02 00:44:06;;;;;;;1.23;1.20;;;;;;;13.90;51.39;95107.88;2617380;54;20657;-80
2022/11/02 00:46:35;;;;;;;1.27;1.27;;;;;;;13.46;52.35;95110.94;2617402;47;20191;-79
2022/11/02 00:49:04;;;;;;;1.33;1.30;;;;;;;13.02;53.97;95111.03;2617521;54;20141;-81
2022/11/02 00:51:32;;;;;;;1.00;1.00;;;;;;;13.05;54.00;95103.31;2617182;54;20156;-80
2022/11/02 00:54:01;;;;;;;1.80;1.70;;;;;;;12.96;53.89;95082.44;2618045;47;20149;-79
2022/11/02 00:56:30;;;;;;;1.50;1.50;;;;;;;14.41;54.94;95075.75;2618012;54;20160;-79
2022/11/02 00:59:02;;;;;;;1.40;1.30;;;;;;;14.77;49.64;95092.97;2617883;54;20153;-78
2022/11/02 01:01:30;;;;;;;1.30;1.07;;;;;;;14.61;52.18;95073.38;2618453;47;20149;-79
2022/11/02 01:03:59;;;;;;;1.60;1.50;;;;;;;15.68;50.74;95111.41;2618520;47;20145;-79
2022/11/02 01:06:28;;;;;;;1.20;1.10;;;;;;;16.00;50.63;95080.59;2618198;47;20160;-80
2022/11/02 01:08:56;;;;;;;2.47;1.03;;;;;;;16.59;48.46;95104.50;2618137;54;20156;-79
2022/11/02 01:11:26;;;;;;;1.97;1.87;;;;;;;16.93;47.65;95102.22;2618094;54;20193;-80
2022/11/02 01:13:55;;;;;;;1.80;1.70;;;;;;;17.03;47.49;95090.19;2617702;54;20160;-80
2022/11/02 01:16:26;;;;;;;1.57;1.47;;;;;;;17.34;47.09;95125.72;2618347;47;20201;-80
2022/11/02 01:18:56;;;;;;;5.93;1.67;;;;;;;17.30;46.67;95117.06;2617985;47;20160;-80
2022/11/02 01:21:25;;;;;;;0.90;0.87;;;;;;;17.40;47.32;95123.66;2618060;54;20156;-79
2022/11/02 01:23:54;;;;;;;1.03;1.03;;;;;;;17.37;46.90;95125.03;2618499;54;20160;-80
2022/11/02 01:26:23;;;;;;;1.53;1.20;;;;;;;17.35;47.46;95102.13;2618143;47;20160;-80
2022/11/02 01:28:54;;;;;;;1.77;1.23;;;;;;;17.24;46.65;95076.88;2618458;54;20167;-80
2022/11/02 01:31:26;;;;;;;1.63;1.53;;;;;;;17.70;46.10;95116.91;2618376;47;20200;-80
2022/11/02 01:33:54;;;;;;;6.23;1.10;;;;;;;17.51;45.80;95086.53;2618906;54;20141;-80
2022/11/02 01:36:23;;;;;;;1.57;1.17;;;;;;;17.67;45.47;95110.41;2619886;39;20558;-82
2022/11/02 01:38:53;;;;;;;1.80;1.70;;;;;;;16.88;44.63;95109.28;2619337;47;20160;-80
2022/11/02 01:41:22;;;;;;;1.80;1.70;;;;;;;15.80;45.73;95089.50;2618780;54;20156;-80
2022/11/02 01:43:53;;;;;;;2.30;1.60;;;;;;;14.73;49.13;95096.47;2618447;54;20153;-79
2022/11/02 01:46:27;;;;;;;2.90;1.67;;;;;;;13.87;51.79;95065.09;2618645;47;20153;-80
2022/11/02 01:49:02;;;;;;;4.50;2.03;;;;;;;13.05;53.62;95052.13;2619851;47;20188;-79
2022/11/02 01:51:33;;;;;;;2.60;2.50;;;;;;;12.45;55.92;95060.22;2618039;54;20156;-80
2022/11/02 01:54:07;;;;;;;3.43;2.37;;;;;;;12.20;57.11;95087.13;2618278;47;20153;-81
2022/11/02 01:56:38;;;;;;;1.37;1.37;;;;;;;11.69;57.54;95061.97;2618429;47;20145;-81
2022/11/02 01:59:12;;;;;;;2.40;1.93;;;;;;;11.35;57.53;95030.28;2618483;47;20265;-81
2022/11/02 02:01:44;;;;;;;1.87;1.77;;;;;;;10.75;60.65;95060.69;2618182;47;20764;-81
2022/11/02 02:04:14;;;;;;;1.10;1.10;;;;;;;10.30;62.83;95072.38;2618146;47;20145;-80
2022/11/02 02:06:44;;;;;;;6.23;2.57;;;;;;;9.99;63.68;95054.16;2618038;46;20153;-80
2022/11/02 02:09:14;;;;;;;1.20;1.20;;;;;;;9.84;64.08;95028.78;2618300;54;20161;-80
2022/11/02 02:11:44;;;;;;;1.83;1.47;;;;;;;10.08;63.66;95052.41;2618251;47;20278;-80
2022/11/02 02:14:16;;;;;;;2.30;1.87;;;;;;;10.69;62.85;95086.69;2618849;47;20205;-80
2022/11/02 02:17:07;;;;;;;1.37;1.37;;;;;;;11.19;60.91;95069.41;2618656;47;20157;-81
2022/11/02 02:19:46;;;;;;;1.30;1.30;;;;;;;10.89;60.30;95035.00;2618624;54;20197;-80
2022/11/02 02:22:39;;;;;;;1.83;1.70;;;;;;;10.88;62.05;95081.72;2618285;54;20153;-80
2022/11/02 02:25:24;;;;;;;1.90;1.80;;;;;;;9.57;65.52;95050.28;2617511;47;20153;-79
2022/11/02 02:28:08;;;;;;;1.63;1.60;;;;;;;9.47;67.07;95052.69;2618509;39;20952;-79
2022/11/02 02:30:42;;;;;;;2.97;2.77;;;;;;;10.68;64.50;95068.22;2618417;47;20181;-79
2022/11/02 02:33:16;;;;;;;2.13;1.57;;;;;;;10.56;62.97;95050.78;2618578;47;20164;-79
2022/11/02 02:35:49;;;;;;;1.17;1.17;;;;;;;10.48;63.71;95067.47;2618195;54;20153;-79
2022/11/02 02:38:24;;;;;;;4.87;1.30;;;;;;;10.48;64.03;95053.28;2618462;47;20652;-79
2022/11/02 02:41:00;;;;;;;1.57;1.50;;;;;;;10.86;63.05;95068.19;2619273;46;20160;-80
2022/11/02 02:43:36;;;;;;;3.20;1.20;;;;;;;11.05;62.41;95075.28;2619072;47;20168;-80
2022/11/02 02:46:11;;;;;;;1.40;1.30;;;;;;;12.29;62.22;95043.44;2618348;54;20167;-78
2022/11/02 02:48:42;;;;;;;1.63;1.50;;;;;;;13.94;56.64;95053.88;2617795;47;20152;-80
2022/11/02 02:51:14;;;;;;;1.07;1.07;;;;;;;14.97;53.71;95061.34;2617911;54;20149;-79
2022/11/02 02:53:46;;;;;;;1.40;1.30;;;;;;;15.39;51.69;95062.25;2618256;47;20693;-79
2022/11/02 02:56:18;;;;;;;2.33;2.17;;;;;;;15.37;51.61;94999.44;2618118;54;20145;-80
2022/11/02 02:58:54;;;;;;;6.50;2.57;;;;;;;15.33;48.22;95067.09;2617982;47;20161;-79
2022/11/02 03:01:24;;;;;;;1.93;1.80;;;;;;;14.37;50.08;95069.91;2618532;47;20277;-80
2022/11/02 03:03:53;;;;;;;2.10;1.60;;;;;;;14.67;54.06;95059.25;2618209;47;20168;-80
2022/11/02 03:06:26;;;;;;;2.33;1.23;;;;;;;13.53;53.43;95067.75;2618392;47;20153;-80
2022/11/02 03:09:04;;;;;;;1.93;1.83;;;;;;;14.52;54.83;95066.03;2618116;47;20153;-80
2022/11/02 03:11:34;;;;;;;1.10;1.10;;;;;;;14.29;51.54;95078.25;2617932;46;20152;-79
2022/11/02 03:14:24;;;;;;;2.43;1.80;;;;;;;14.24;54.72;95049.66;2618394;47;20672;-80
2022/11/02 03:17:12;;;;;;;2.27;1.40;;;;;;;14.70;52.84;95082.84;2618832;54;20161;-80
2022/11/02 03:19:50;;;;;;;2.50;2.30;;;;;;;15.72;51.10;95075.06;2618367;47;20153;-80
2022/11/02 03:22:26;;;;;;;2.30;2.10;;;;;;;16.14;48.75;95097.28;2618223;47;20149;-80
2022/11/02 03:25:01;;;;;;;5.50;2.17;;;;;;;16.05;49.10;95059.28;2618563;47;20172;-80
2022/11/02 03:27:41;;;;;;;2.20;2.10;;;;;;;16.10;47.97;95075.09;2618289;54;20152;-79
2022/11/02 03:30:17;;;;;;;1.97;1.87;;;;;;;16.39;48.38;95084.88;2620315;47;20148;-80
2022/11/02 03:32:52;;;;;;;2.00;1.90;;;;;;;15.95;48.19;95062.66;2618342;47;20245;-79
2022/11/02 03:35:26;;;;;;;5.23;1.90;;;;;;;15.96;48.15;95069.09;2617855;54;20160;-80
2022/11/02 03:38:02;;;;;;;1.73;1.63;;;;;;;16.03;48.02;95055.66;2617928;54;20160;-80
2022/11/02 03:40:36;;;;;;;2.27;1.93;;;;;;;15.43;47.33;94962.47;2618053;47;20175;-79
2022/11/02 03:43:07;;;;;;;1.80;1.70;;;;;;;14.24;50.20;95055.34;2617993;47;20145;-80
2022/11/02 03:45:43;;;;;;;1.60;1.60;;;;;;;12.30;54.71;95005.09;2618396;47;20152;-79
2022/11/02 03:48:15;;;;;;;2.60;2.40;;;;;;;11.36;58.40;95040.97;2618731;39;20586;-80
2022/11/02 03:50:48;;;;;;;2.00;1.73;;;;;;;11.28;59.77;95034.28;2618863;39;20584;-79
2022/11/02 03:53:23;;;;;;;1.80;1.70;;;;;;;11.06;60.36;95064.69;2617767;54;20145;-80
2022/11/02 03:55:56;;;;;;;1.77;1.57;;;;;;;11.35;60.15;95084.16;2617858;46;20184;-80
2022/11/02 03:58:25;;;;;;;1.70;1.60;;;;;;;11.44;60.52;95074.56;2617859;54;20153;-80
2022/11/02 04:01:00;;;;;;;1.67;1.57;;;;;;;10.57;62.90;95040.16;2617853;47;20160;-80
2022/11/02 04:03:30;;;;;;;2.87;1.77;;;;;;;11.06;61.85;95076.03;2617789;47;20712;-80
2022/11/02 04:05:59;;;;;;;2.50;2.30;;;;;;;11.52;60.40;95076.97;2617685;47;20168;-79
2022/11/02 04:08:34;;;;;;;2.23;2.13;;;;;;;12.37;57.43;95052.19;2617601;54;20160;-79
2022/11/02 04:16:28;;;;;;;2.43;1.83;;;;;;;12.70;57.76;95075.94;2618898;47;20148;-80
2022/11/02 04:21:37;;;;;;;1.53;1.53;;;;;;;15.16;52.03;95080.31;2620212;47;20157;-79
2022/11/02 04:26:47;;;;;;;1.87;1.73;;;;;;;15.89;50.31;95073.25;2618576;47;20148;-79
2022/11/02 04:29:16;;;;;;;3.20;2.63;;;;;;;16.11;49.04;95084.38;2618457;39;20572;-80
2022/11/02 04:31:47;;;;;;;2.53;1.33;;;;;;;16.15;49.62;95056.59;2617512;47;20199;-79
2022/11/02 04:34:13;;;;;;;2.63;2.43;;;;;;;16.45;48.84;95089.97;2617775;47;20142;-79
2022/11/02 04:36:43;;;;;;;2.13;1.93;;;;;;;16.03;45.21;95093.50;2617874;54;20137;-80
2022/11/02 04:39:09;;;;;;;8.33;2.87;;;;;;;13.96;50.88;95066.03;2617456;54;20145;-80
2022/11/02 04:41:43;;;;;;;2.57;2.33;;;;;;;13.08;54.45;95082.06;2617845;47;20156;-79
2022/11/02 04:44:13;;;;;;;2.50;2.30;;;;;;;12.64;56.12;95082.16;2618010;47;20643;-79
2022/11/02 04:46:44;;;;;;;4.40;2.20;;;;;;;11.89;58.35;95084.69;2617597;47;20168;-80
2022/11/02 04:49:16;;;;;;;3.50;2.37;;;;;;;11.19;60.16;95060.91;2617945;54;20156;-79
2022/11/02 04:51:44;;;;;;;5.30;3.33;;;;;;;10.82;61.88;95087.88;2619123;47;20202;-79
2022/11/02 04:54:13;;;;;;;7.17;3.07;;;;;;;10.36;64.16;95081.13;2618435;54;20161;-79
2022/11/02 04:56:41;;;;;;;3.53;2.33;;;;;;;10.32;64.13;95069.66;2618357;47;20196;-79
2022/11/02 04:59:10;;;;;;;2.27;2.10;;;;;;;9.91;64.96;95079.28;2617913;47;20689;-80
2022/11/02 05:01:39;;;;;;;1.30;1.00;;;;;;;9.61;66.53;95055.38;2618019;47;20161;-78
2022/11/02 05:04:07;;;;;;;1.50;1.50;;;;;;;10.14;65.07;95075.25;2618644;47;20140;-78
2022/11/02 05:06:39;;;;;;;0.97;0.97;;;;;;;11.62;62.67;95065.97;2618461;47;20220;-79
2022/11/02 05:09:07;;;;;;;1.90;1.67;;;;;;;13.22;58.97;95088.19;2618242;47;20192;-80
2022/11/02 05:11:36;;;;;;;1.87;1.77;;;;;;;14.39;54.35;95089.91;2617396;46;20175;-80
2022/11/02 05:14:04;;;;;;;3.03;2.07;;;;;;;14.86;52.24;95089.66;2617309;47;20197;-80
2022/11/02 05:16:33;;;;;;;10.53;2.50;;;;;;;15.27;52.33;95096.25;2617832;47;20164;-80
2022/11/02 05:19:02;;;;;;;1.93;1.80;;;;;;;15.70;50.78;95089.31;2618090;47;20160;-80
2022/11/02 05:21:30;;;;;;;2.13;2.03;;;;;;;15.38;49.03;95100.78;2618161;54;20148;-80
2022/11/02 05:24:02;;;;;;;2.53;2.43;;;;;;;14.85;49.78;95093.91;2619275;31;20669;-80
2022/11/02 05:26:31;;;;;;;2.17;1.80;;;;;;;13.28;54.54;95099.00;2618502;47;20140;-84
2022/11/02 05:28:59;;;;;;;2.20;2.10;;;;;;;13.02;55.48;95105.34;2618106;47;20232;-81
2022/11/02 05:31:28;;;;;;;2.10;1.90;;;;;;;13.32;55.08;95111.25;2618141;54;20244;-81
2022/11/02 05:33:57;;;;;;;3.40;3.10;;;;;;;12.97;55.74;95118.00;2616872;54;20480;-80
2022/11/02 05:36:25;;;;;;;3.37;3.07;;;;;;;13.52;54.16;95105.44;2617298;47;20152;-79
2022/11/02 05:38:54;;;;;;;2.13;1.97;;;;;;;14.33;52.68;95115.41;2617614;39;20255;-79
2022/11/02 05:41:26;;;;;;;3.27;1.63;;;;;;;14.66;52.24;95125.50;2617105;47;20153;-79
2022/11/02 05:43:55;;;;;;;2.63;2.43;;;;;;;13.70;53.66;95123.00;2617175;47;20739;-80
2022/11/02 05:46:26;;;;;;;7.60;2.87;;;;;;;13.82;54.30;95102.66;2617032;54;20145;-80
2022/11/02 05:48:54;;;;;;;3.07;2.77;;;;;;;14.09;53.83;95119.06;2617640;39;20578;-80
2022/11/02 05:51:23;;;;;;;4.57;4.17;;;;;;;14.55;53.11;95127.38;2618071;31;20663;-80
2022/11/02 05:53:52;;;;;;;2.93;2.57;;;;;;;15.02;52.84;95131.38;2617991;39;20626;-79
2022/11/02 05:56:21;;;;;;;3.47;3.10;;;;;;;15.94;50.69;95137.63;2617699;47;20153;-80
2022/11/02 05:58:52;;;;;;;4.57;2.83;;;;;;;15.92;50.20;95100.44;2617510;47;20748;-77
2022/11/02 06:01:21;;;;;;;4.57;3.37;;;;;;;15.19;48.71;95118.88;2617819;46;20696;-79
2022/11/02 06:03:49;;;;;;;2.53;2.33;;;;;;;14.37;51.75;95147.56;2617719;54;20157;-79
2022/11/02 06:06:47;;;;;;;2.27;2.07;;;;;;;13.34;53.98;95102.78;2618151;54;20153;-83
2022/11/02 06:09:18;;;;;;;7.53;1.90;;;;;;;12.14;59.32;95148.69;2618950;54;20161;-80
2022/11/02 06:11:47;;;;;;;10.73;3.30;;;;;;;12.14;59.96;95146.56;2618098;54;20173;-82
2022/11/02 06:14:20;;;;;;;6.50;2.43;;;;;;;12.04;60.57;95146.94;2617980;47;20974;-80
2022/11/02 06:16:51;;;;;;;3.63;3.33;;;;;;;11.99;61.15;95148.19;2617487;47;20168;-79
2022/11/02 06:19:19;;;;;;;3.23;2.43;;;;;;;12.12;61.23;95152.19;2618200;47;20155;-79
2022/11/02 06:22:01;;;;;;;5.93;2.63;;;;;;;11.66;62.96;95148.38;2618404;54;20200;-80
2022/11/02 06:24:30;;;;;;;6.43;3.07;;;;;;;11.75;62.19;95133.13;2618141;54;20161;-75
2022/11/02 06:26:58;;;;;;;4.53;2.63;;;;;;;12.29;61.07;95145.66;2618123;39;20521;-82
2022/11/02 06:29:29;;;;;;;2.40;2.30;;;;;;;12.67;59.68;95137.69;2617799;47;20153;-78
2022/11/02 06:31:58;;;;;;;3.57;2.90;;;;;;;13.48;57.60;95162.94;2617935;47;20319;-79
2022/11/02 06:34:27;;;;;;;4.93;3.47;;;;;;;14.65;54.48;95153.28;2617768;47;20149;-79
2022/11/02 06:36:55;;;;;;;2.53;2.43;;;;;;;15.69;51.67;95149.97;2618052;47;20153;-80
2022/11/02 06:39:24;;;;;;;3.93;3.63;;;;;;;15.94;50.76;95161.22;2618169;54;20232;-82
2022/11/02 06:41:53;;;;;;;5.27;2.93;;;;;;;16.05;50.18;95156.41;2618103;47;20149;-82
2022/11/02 06:44:21;;;;;;;5.77;3.60;;;;;;;15.84;50.29;95161.00;2618119;54;20152;-83
2022/11/02 06:46:52;;;;;;;4.07;3.67;;;;;;;15.20;52.51;95160.28;2618205;47;20189;-82
2022/11/02 06:49:21;;;;;;;5.83;3.40;;;;;;;15.79;50.78;95153.75;2618345;48;20145;-83
2022/11/02 06:51:52;;;;;;;4.77;3.57;;;;;;;16.07;50.07;95167.16;2618474;47;20156;-82
2022/11/02 06:54:21;;;;;;;4.03;3.53;;;;;;;16.54;47.95;95154.44;2618532;47;20153;-83
2022/11/02 06:56:50;;;;;;;3.83;3.43;;;;;;;17.15;47.25;95149.75;2618360;39;20597;-82
2022/11/02 06:59:18;;;;;;;5.83;3.57;;;;;;;17.66;46.43;95154.81;2618467;47;20173;-82
2022/11/02 07:01:51;;;;;;;3.80;3.50;;;;;;;18.04;45.79;95151.69;2618542;47;21039;-81
2022/11/02 07:04:23;;;;;;;8.30;4.07;;;;;;;17.71;44.72;95121.94;2618641;47;20684;-84
2022/11/02 07:06:51;;;;;;;4.00;3.23;;;;;;;18.25;44.04;95141.19;2618636;47;20767;-82
2022/11/02 07:09:20;;;;;;;3.43;3.23;;;;;;;18.42;43.86;95134.22;2618484;47;20165;-84
2022/11/02 07:11:49;;;;;;;3.03;2.93;;;;;;;18.25;44.02;95138.31;2619225;54;20156;-82
2022/11/02 07:14:17;;;;;;;4.53;3.73;;;;;;;18.43;43.50;95141.38;2618320;47;20153;-83
2022/11/02 07:16:46;;;;;;;3.27;3.07;;;;;;;18.58;42.86;95148.00;2618477;47;20197;-83
2022/11/02 07:19:15;;;;;;;2.87;2.77;;;;;;;18.80;42.36;95145.34;2618586;47;20157;-82
2022/11/02 07:21:46;;;;;;;5.83;3.90;;;;;;;18.40;42.77;95122.00;2618741;54;20211;-83
2022/11/02 07:24:14;;;;;;;4.67;3.70;;;;;;;18.90;42.50;95143.97;2618588;46;20200;-82
2022/11/02 07:26:43;;;;;;;4.27;3.70;;;;;;;18.88;42.25;95127.44;2620876;47;20149;-82
2022/11/02 07:29:12;;;;;;;6.00;3.70;;;;;;;19.15;41.58;95140.59;2622614;47;20677;-82
2022/11/02 07:31:40;;;;;;;6.27;3.83;;;;;;;19.15;41.86;95140.59;2621003;47;20236;-85
2022/11/02 07:34:09;;;;;;;4.28;3.33;;;;;;;19.13;41.35;95122.66;2618518;46;20165;-86
2022/11/02 07:39:08;;;;;;;2.80;2.65;;;;;;;19.56;41.36;95134.41;2618757;54;20149;-80
2022/11/02 07:41:37;;;;;;;4.55;3.00;;;;;;;19.46;40.87;95141.50;2617840;47;20153;-86
2022/11/02 07:44:06;;;;;;;3.28;2.53;;;;;;;19.53;40.09;95142.31;2615598;47;20187;-83
2022/11/02 07:46:35;;;;;;;3.30;2.45;;;;;;;19.43;40.48;95131.44;2615498;47;20153;-85
2022/11/02 07:49:03;;;;;;;3.72;2.65;;;;;;;19.52;40.84;95132.97;2617116;54;20156;-84
2022/11/02 07:51:32;;;;;;;3.35;3.05;;;;;;;19.41;41.34;95136.44;2616551;47;20153;-81
2022/11/02 07:54:01;;;;;;;4.07;2.97;;;;;;;19.64;40.31;95132.31;2617514;54;20924;-81
2022/11/02 07:56:33;;;;;;;3.25;2.50;;;;;;;19.76;40.14;95132.38;2619008;47;20169;-84
2022/11/02 07:59:01;;;;;;;4.80;2.30;;;;;;;19.74;40.46;95126.63;2619312;47;20684;-85
2022/11/02 08:01:30;;;;;;;4.47;4.07;;;;;;;19.49;40.33;95068.31;2620731;47;20149;-82
2022/11/02 08:03:59;;;;;;;10.30;3.05;;;;;;;19.78;39.95;95117.28;2614434;54;20149;-82
2022/11/02 08:06:28;;;;;;;3.28;2.63;;;;;;;19.85;40.39;95127.38;2615479;31;20646;-81
2022/11/02 08:08:57;;;;;;;5.07;3.00;;;;;;;19.92;39.71;95110.88;2614750;54;20171;-82
2022/11/02 08:11:25;;;;;;;5.93;2.58;;;;;;;19.98;40.11;95131.03;2617665;47;20709;-84
2022/11/02 08:13:57;;;;;;;3.25;2.50;;;;;;;19.58;39.29;95089.19;2614999;47;20248;-83
2022/11/02 08:16:26;;;;;;;3.95;3.55;;;;;;;20.19;39.52;95121.03;2616313;47;20160;-82
2022/11/02 08:18:57;;;;;;;8.95;3.13;;;;;;;20.17;39.33;95118.88;2617698;47;20241;-82
2022/11/02 08:21:26;;;;;;;9.20;2.53;;;;;;;20.35;39.05;95118.22;2617782;47;20202;-82
2022/11/02 08:23:55;;;;;;;2.95;2.75;;;;;;;20.27;38.60;95100.91;2618067;47;20176;-82
2022/11/02 08:26:24;;;;;;;5.38;3.17;;;;;;;20.31;39.20;95106.69;2618657;54;20153;-85
2022/11/02 08:28:52;;;;;;;4.05;3.13;;;;;;;20.29;39.94;95106.69;2618637;47;20161;-80
2022/11/02 08:31:25;;;;;;;4.45;3.60;;;;;;;20.39;39.26;95095.22;2618648;47;20151;-83
2022/11/02 08:33:54;;;;;;;4.20;3.15;;;;;;;20.35;38.91;95094.47;2618934;47;20144;-83
2022/11/02 08:36:22;;;;;;;6.43;3.67;;;;;;;20.46;38.22;95104.59;2618632;54;20688;-81
2022/11/02 08:38:51;;;;;;;13.10;3.30;;;;;;;20.47;38.58;95085.91;2619393;39;20558;-82
2022/11/02 08:41:20;;;;;;;8.65;3.55;;;;;;;20.39;39.93;95103.13;2618746;54;20149;-82
2022/11/02 08:43:48;;;;;;;3.45;2.45;;;;;;;20.51;38.90;95088.75;2620172;54;20149;-82
2022/11/02 08:46:17;;;;;;;4.45;4.07;;;;;;;20.67;38.41;95099.56;2626259;47;20157;-82
2022/11/02 08:48:48;;;;;;;5.03;3.88;;;;;;;20.87;38.04;95094.56;2619446;46;20193;-81
2022/11/02 08:51:17;;;;;;;3.85;3.42;;;;;;;21.08;37.84;95089.50;2618476;47;20156;-82
2022/11/02 08:53:45;;;;;;;7.63;4.38;;;;;;;21.23;37.60;95093.09;2618300;39;20664;-81
2022/11/02 08:56:14;;;;;;;6.15;3.63;;;;;;;21.16;37.16;95094.53;2618730;54;20153;-83
2022/11/02 08:58:43;;;;;;;6.95;3.67;;;;;;;20.87;37.40;95070.81;2618248;39;20570;-80
2022/11/02 09:01:11;;;;;;;6.82;3.85;;;;;;;20.96;37.61;95068.63;2618655;47;20141;-82
2022/11/02 09:03:40;;;;;;;8.05;3.88;;;;;;;21.35;37.28;95075.06;2619183;54;20182;-82
2022/11/02 09:06:11;;;;;;;8.30;3.53;;;;;;;21.57;37.97;95090.16;2619167;46;20153;-80
2022/11/02 09:08:40;;;;;;;4.00;2.63;;;;;;;21.55;37.17;95084.41;2618509;51;20229;-81
2022/11/02 09:11:08;;;;;;;3.40;3.08;;;;;;;21.61;36.34;95060.59;2618698;47;20182;-79
2022/11/02 09:13:37;;;;;;;6.05;4.18;;;;;;;21.49;36.56;95049.09;2618334;54;20226;-79
2022/11/02 09:16:06;;;;;;;3.67;3.03;;;;;;;21.42;36.79;95080.09;2618474;46;20201;-79
2022/11/02 09:18:35;;;;;;;7.15;4.38;;;;;;;21.53;37.31;95069.25;2619256;31;20673;-79
2022/11/02 09:21:04;;;;;;;3.58;3.28;;;;;;;21.07;37.03;95038.38;2618272;46;20170;-83
2022/11/02 09:23:36;;;;;;;5.47;3.92;;;;;;;21.55;36.91;95063.50;2617376;54;20153;-79
2022/11/02 09:26:05;;;;;;;4.68;3.17;;;;;;;21.76;37.06;95059.09;2616613;46;20244;-80
2022/11/02 09:28:33;;;;;;;6.00;3.13;;;;;;;21.84;37.11;95067.00;2617956;54;20161;-81
2022/11/02 09:31:02;;;;;;;5.97;3.85;;;;;;;21.91;35.88;95074.88;2617881;47;20165;-82
2022/11/02 09:33:31;;;;;;;10.70;5.07;;;;;;;22.01;35.75;95067.66;2618340;47;20157;-82
2022/11/02 09:36:04;;;;;;;4.75;4.45;;;;;;;22.21;35.09;95061.78;2617862;47;20165;-82
2022/11/02 09:38:32;;;;;;;6.25;3.70;;;;;;;22.17;34.96;95059.63;2618519;47;20235;-81
2022/11/02 09:41:15;;;;;;;11.00;4.40;;;;;;;22.35;36.75;95044.38;2618356;47;20205;-84
2022/11/02 09:43:55;;;;;;;13.00;3.75;;;;;;;22.45;35.74;95044.31;2618112;54;20152;-82
2022/11/02 09:46:28;;;;;;;9.32;5.05;;;;;;;22.61;34.91;95038.44;2618699;49;20197;-83
2022/11/02 09:49:00;;;;;;;8.05;4.63;;;;;;;22.67;35.36;95038.38;2617193;47;20145;-83
2022/11/02 09:51:34;;;;;;;5.10;4.60;;;;;;;22.95;34.43;95028.78;2615729;47;20153;-82
2022/11/02 09:54:10;;;;;;;3.90;3.60;;;;;;;23.04;33.67;95035.91;2617462;50;20134;-82
2022/11/02 09:56:44;;;;;;;4.43;4.03;;;;;;;22.91;34.64;95013.66;2619655;54;20187;-83
2022/11/02 09:59:15;;;;;;;4.93;4.40;;;;;;;23.19;34.39;95024.22;2619050;47;20153;-82
2022/11/02 10:01:54;;;;;;;5.45;5.00;;;;;;;23.30;33.67;95029.16;2621804;47;20193;-82
2022/11/02 10:05:01;;;;;;;13.52;5.47;;;;;;;23.23;33.72;95016.25;2622141;47;20145;-81
2022/11/02 10:07:46;;;;;;;10.10;5.15;;;;;;;23.58;34.24;95010.81;2620204;54;20149;-82
2022/11/02 10:10:19;;;;;;;8.60;5.47;;;;;;;23.36;34.23;95014.66;2618680;54;20209;-83
2022/11/02 10:13:01;;;;;;;7.93;4.50;;;;;;;23.45;33.57;94997.19;2618652;47;20179;-83
2022/11/02 10:15:37;;;;;;;5.07;4.68;;;;;;;23.45;33.60;94989.25;2619069;54;20695;-79
2022/11/02 10:18:11;;;;;;;8.20;4.45;;;;;;;23.67;33.01;94986.09;2618027;47;20156;-82
2022/11/02 10:20:43;;;;;;;6.50;5.85;;;;;;;23.66;33.15;94987.56;2622390;54;20165;-86
2022/11/02 10:23:22;;;;;;;5.80;5.25;;;;;;;23.72;33.07;94986.78;2622329;46;20156;-81
2022/11/02 10:25:51;;;;;;;7.13;4.20;;;;;;;23.83;33.25;94987.34;2617074;54;20161;-85
2022/11/02 10:28:28;;;;;;;11.15;3.95;;;;;;;23.51;33.29;94983.41;2616159;47;20173;-82
2022/11/02 10:30:57;;;;;;;5.80;4.85;;;;;;;23.53;33.04;94986.28;2624506;47;20151;-87
2022/11/02 10:33:32;;;;;;;5.40;4.90;;;;;;;23.29;32.97;94949.69;2621976;46;20152;-82
2022/11/02 10:36:21;;;;;;;7.28;4.20;;;;;;;23.60;32.86;94984.75;2620841;47;20156;-81
2022/11/02 10:39:02;;;;;;;5.57;4.43;;;;;;;23.49;32.82;94979.81;2619230;47;20188;-81
2022/11/02 10:41:47;;;;;;;9.60;4.30;;;;;;;23.44;33.07;94967.59;2617987;47;20156;-82
2022/11/02 10:44:49;;;;;;;4.93;4.63;;;;;;;23.46;32.85;94963.94;2617393;47;20727;-81
2022/11/02 10:47:20;;;;;;;6.32;4.40;;;;;;;23.57;33.20;94959.50;2618937;47;20705;-81
2022/11/02 10:50:14;;;;;;;4.68;4.38;;;;;;;23.51;33.20;94959.56;2618187;54;20161;-84
2022/11/02 10:52:46;;;;;;;4.18;3.88;;;;;;;23.45;33.01;94957.44;2617592;46;20200;-84
2022/11/02 10:55:23;;;;;;;3.53;3.25;;;;;;;22.84;33.51;94900.34;2619475;47;20164;-85
2022/11/02 10:57:54;;;;;;;5.63;3.45;;;;;;;23.25;33.40;94949.72;2617463;54;20732;-81
2022/11/02 11:00:31;;;;;;;9.73;2.70;;;;;;;23.25;33.33;94954.78;2617570;54;20141;-80
2022/11/02 11:03:11;;;;;;;13.25;2.80;;;;;;;23.38;32.83;94948.13;2618449;47;20156;-85
2022/11/02 11:05:55;;;;;;;7.75;4.70;;;;;;;23.01;33.54;94900.91;2618358;54;20156;-86
2022/11/02 11:08:33;;;;;;;6.53;3.63;;;;;;;23.54;32.75;94940.75;2617330;47;20149;-85
2022/11/02 11:11:21;;;;;;;6.07;2.00;;;;;;;23.57;32.02;94925.53;2617324;47;20156;-82
2022/11/02 11:13:57;;;;;;;6.18;2.40;;;;;;;23.94;31.76;94934.41;2617349;47;20179;-81
2022/11/02 11:16:41;;;;;;;4.15;2.15;;;;;;;24.00;30.34;94922.03;2617698;47;20156;-81
2022/11/02 11:19:22;;;;;;;0.90;0.90;;;;;;;23.96;31.31;94925.69;2618203;46;20160;-82
2022/11/02 11:21:51;;;;;;;2.80;1.20;;;;;;;24.09;30.76;94920.44;2622425;54;20137;-81
2022/11/02 11:24:26;;;;;;;3.53;1.05;;;;;;;24.15;30.08;94926.16;2617544;47;20152;-81
2022/11/02 11:27:17;;;;;;;1.42;1.10;;;;;;;24.03;29.15;94912.59;2617754;46;20786;-82
2022/11/02 11:30:04;;;;;;;1.65;1.15;;;;;;;24.30;29.70;94915.09;2620217;47;20244;-84
2022/11/02 11:32:35;;;;;;;1.88;1.13;;;;;;;24.23;29.05;94916.63;2617781;47;20172;-82
2022/11/02 11:35:07;;;;;;;1.08;1.08;;;;;;;24.48;27.25;94911.88;2618337;54;20156;-82
2022/11/02 11:37:36;;;;;;;2.20;1.38;;;;;;;24.53;28.05;94898.75;2617751;54;20304;-83
2022/11/02 11:40:17;;;;;;;1.38;1.30;;;;;;;24.32;26.10;94900.59;2620890;47;20173;-82
2022/11/02 11:42:46;;;;;;;1.73;1.35;;;;;;;24.31;26.69;94873.09;2621743;47;20159;-82
2022/11/02 11:45:22;;;;;;;5.18;0.65;;;;;;;24.39;26.73;94893.94;2618375;47;20153;-81
2022/11/02 11:47:57;;;;;;;0.47;0.47;;;;;;;24.42;26.32;94900.41;2617926;47;20153;-82
2022/11/02 11:50:26;;;;;;;2.47;1.05;;;;;;;24.43;26.74;94896.78;2618080;47;20153;-82
2022/11/02 11:53:12;;;;;;;1.42;1.33;;;;;;;24.37;27.45;94878.78;2617588;54;20180;-82
2022/11/02 11:55:49;;;;;;;0.50;0.50;;;;;;;24.37;26.15;94870.09;2617903;54;20148;-79
2022/11/02 11:58:22;;;;;;;0.73;0.73;;;;;;;24.50;26.86;94888.69;2616164;47;20212;-80
2022/11/02 12:01:06;;;;;;;1.05;0.85;;;;;;;24.49;27.19;94880.75;2617741;47;20145;-81
2022/11/02 12:03:52;;;;;;;1.85;1.75;;;;;;;24.40;26.49;94865.69;2618445;39;20565;-83
2022/11/02 12:06:29;;;;;;;2.90;0.70;;;;;;;24.59;27.28;94866.81;2617784;54;20160;-84
2022/11/02 12:09:08;;;;;;;1.63;0.88;;;;;;;24.50;26.62;94845.25;2617975;39;20365;-84
2022/11/02 12:11:48;;;;;;;4.28;0.80;;;;;;;24.50;27.04;94864.78;2616952;31;20628;-83